Ride Results

Jolly Lette Memorial (23-08-2014)
Ride distance: 80.0 km

Outcomes - Jolly Lette Memorial (23-08-2014)
Division No. of Entries Retired / DNE Completed Withdrawn Ineligible V/O Percentage Completed
HW 7 - 6 1 - - 85.71%
MW 19 - 15 - - 4 78.95%
LW 13 - 10 - 1 2 76.92%
JN 8 - 8 - - - 100.00%
Totals 47 - 39 1 1 6 82.98%
Results - Jolly Lette Memorial (23-08-2014)
No. Rider Horse Place Time Leg Speeds Total
Km/Hr
H/R bpm
Heavyweight
38 Tony Purton Beer Street Lizzy B 1 (BC) 4:49:00 19.3, 14.5 16.61 37, 45, 48 (Avg:46)
65 Mark Green Scrap 2 5:13:00 16.7, 14.1 15.34 42, 47, 53 (Avg:50)
194 Robby Walsh Free Spirit Czar 3 5:56:00 17.1, 11.1 13.48 36, 47, 56 (Avg:51)
122 Ged Nicklason Wongawol Digger 4 6:44:00 13.1, 10.8 11.88 33, 41, 56 (Avg:48)
199 Dennis Foley Jnr Sienna Ekzotica 5 7:18:00 12.1, 9.9 10.96 35, 45, 60 (Avg:52)
82 Mark Dunn Bella 6 8:30:00 10.3, 8.6 9.41 36, 44, 48 (Avg:46)
48 Alison Colbeck Malricia Frankie Withdrawn L1 0:00:00 - - 30, 47 (Avg:47)
Middleweight
132 Carolyn Foley-Jones Vandieman Princess Ellie 1 4:09:00 19.5, 19.0 19.28 38, 48, 51 (Avg:49)
136 Kaye Mitchell Beer Street Bluewitch 2 (BC) 4:49:00 19.3, 14.5 16.61 31, 45, 38 (Avg:41)
179 Debbie Grull Lauralyn Notorious 3 4:55:00 17.2, 15.3 16.27 32, 44, 39 (Avg:41)
271 Jessie Herman Hampton Park Contessa 3 4:55:00 17.2, 15.3 16.27 35, 41, 54 (Avg:47)
261 Lynette Walker Karisma Painted Rascal 3 4:55:00 19.5, 13.9 16.27 42, 48, 56 (Avg:52)
90 Timothy Sutcliffe Cameo Arpeggio 6 6:06:00 13.5, 12.6 13.11 45, 49, 51 (Avg:50)
180 Nicole Ford Shah Ha 7 6:14:00 14.3, 11.5 12.83 37, 39, 46 (Avg:42)
143 Pauline Goodwin Marley Hosanna 7 6:14:00 14.3, 11.5 12.83 35, 41, 46 (Avg:43)
281 Sonia Brown-Cordell Baranne Silver Shah 9 6:25:00 13.0, 11.9 12.47 40, 46, 56 (Avg:51)
79 Shannon Hill Lockleigh Park Lucky Martin 10 6:35:00 13.1, 11.3 12.15 42, 40, 48 (Avg:44)
114 Tara Nicklason Wongawol Legend 11 6:44:00 13.1, 10.8 11.88 52, 44, 49 (Avg:46)
138 Kristen Robertson Kerewong Mingus 12 6:49:00 11.8, 11.6 11.74 32, 45, 54 (Avg:49)
216 David Evelyn Kalody Park Eclipse 13 6:58:00 12.3, 10.7 11.48 38, 44, 49 (Avg:46)
66 Saeed Al Maktoum Vandieman Mirakuru 14 7:16:00 11.8, 10.2 11.01 33, 49, 59 (Avg:54)
92 Blaine Astell Sandine Jerez 15 7:34:00 10.9, 10.2 10.57 37, 26, 46 (Avg:36)
219 Robert Crowe Tierview Salama Lame L2 0:00:00 10.3, 10.7 - 40, 42, 59 (Avg:50)
207 Noel Lockhart Kairo Lame L2 0:00:00 13.1, 11.3 - 35, 44, 59 (Avg:51)
111 Royce Martin DVS Suni Bronson Lame L2 0:00:00 13.0, 10.8 - 36, 39, 55 (Avg:47)
165 Danielle Taylor Jezabelle Serenada Lame L2 0:00:00 13.5, 12.6 - 34, 44, 54 (Avg:49)
Lightweight
203 Ellie Woodhouse Cognac 1 (BC) 4:21:00 19.1, 17.6 18.39 39, 46, 46 (Avg:46)
42 Dianne Walsh Razorback Silver Wings 2 5:13:00 16.7, 14.1 15.34 35, 45, 49 (Avg:47)
83 Angie Clark Castlebar Galahad 3 6:35:00 12.3, 11.9 12.15 42, 47, 54 (Avg:50)
M Angela Hawks Bara Park Imal 4 7:34:00 10.9, 10.2 10.57 48, 41, 50 (Avg:45)
238 Sue Sutcliffe Castlebar Baik 4 7:34:00 10.9, 10.2 10.57 47, 33, 39 (Avg:36)
12 Anita Hutchins Malricia Nevra 6 7:46:00 11.7, 9.1 10.30 32, 42, 45 (Avg:43)
272 Mindy Davies Pioneer Park Theatric 7 8:18:00 10.4, 8.9 9.64 40, 38, 51 (Avg:44)
278 Christal Rizk Bryndou Ayce 7 8:18:00 10.4, 8.9 9.64 41, 48, 46 (Avg:47)
253 Kelly Woodhouse Malricia Delilah 9 8:19:00 9.9, 9.2 9.62 35, 43, 48 (Avg:45)
235 Jan Clement Kalody Park Empire Blaze 10 8:30:00 10.3, 8.6 9.41 31, 45, 49 (Avg:47)
125 Brooke Brown-Cordell Lynn-Roy Sharik Heart Rate L2 0:00:00 17.2, 17.5 - 30, 42, 72 (Avg:57)
148 Jeremy Robertson Razorback Charlotte Lame L2 0:00:00 11.8, 11.6 - 39, 43, 56 (Avg:49)
274 Loren Simonetta Shirkira Under Novice Time L1 0:00:00 16.3 - 35, 39 (Avg:39)
Junior
190 Alice Mitchell Beer Street Takone 1 (BC) 4:49:00 19.3, 14.5 16.61 34, 44, 42 (Avg:43)
209 Grace Huxtable Highland View Jess 2 6:06:00 13.5, 12.6 13.11 30, 42, 48 (Avg:45)
74 Felicity Perry Awarran Park Star Shadow 3 6:25:00 13.0, 11.9 12.47 36, 48, 54 (Avg:51)
129 Kirsty Sward Neilly Woodsong Zadonk 4 6:58:00 11.8, 11.1 11.48 42, 46, 55 (Avg:50)
279 Georgia Burley Phantom 5 7:11:00 12.1, 10.2 11.14 30, 40, 50 (Avg:45)
249 Liam Davies Faybein Lea 6 7:18:00 12.1, 9.9 10.96 42, 39, 41 (Avg:40)
127 Jaz Hutchins Boogie 7 7:46:00 11.7, 9.1 10.30 33, 40, 45 (Avg:42)
226 Hayley Marshall Rowallan Aspin 7 7:46:00 11.8, 9.1 10.30 34, 36, 51 (Avg:43)